Time;durP1;ratioP1;P1;durP2;ratioP2;P2;SDS_P1;SDS_P2;PMS_P1;PMS_P2;Temp;Humidity;BMP_temperature;BMP_pressure;BME280_temperature;BME280_humidity;BME280_pressure;Samples;Min_cycle;Max_cycle;Signal;HPM_P1;HPM_P2
2022/08/28 00:01:10;;;;;;;11.60;5.53;;;;;;;19.10;58.04;94644.31;5114373;28;20062;-78
2022/08/28 00:03:36;;;;;;;7.43;5.45;;;;;;;19.18;57.91;94654.75;5079695;28;20042;-77
2022/08/28 00:06:01;;;;;;;10.93;5.07;;;;;;;19.08;58.13;94644.50;5096291;28;20047;-78
2022/08/28 00:08:29;;;;;;;9.00;5.93;;;;;;;19.08;57.91;94649.75;5062659;28;20019;-78
2022/08/28 00:10:55;;;;;;;11.57;5.60;;;;;;;19.18;57.80;94655.56;5096540;28;20020;-78
2022/08/28 00:13:22;;;;;;;11.88;5.43;;;;;;;19.17;57.66;94643.41;5062600;28;20486;-78
2022/08/28 00:15:49;;;;;;;8.60;5.05;;;;;;;19.27;57.75;94658.91;5062757;28;20039;-78
2022/08/28 00:18:15;;;;;;;11.43;5.40;;;;;;;19.17;57.67;94643.41;5062549;28;20028;-78
2022/08/28 00:20:40;;;;;;;7.05;5.18;;;;;;;19.12;57.72;94640.50;5079573;28;20465;-78
2022/08/28 00:23:06;;;;;;;14.38;5.53;;;;;;;19.22;57.71;94650.75;5062466;28;20432;-78
2022/08/28 00:25:32;;;;;;;9.93;5.38;;;;;;;19.17;57.86;94658.41;5096116;28;20096;-78
2022/08/28 00:27:58;;;;;;;9.77;5.20;;;;;;;19.13;57.93;94652.66;5079183;28;20488;-78
2022/08/28 00:30:26;;;;;;;8.10;5.50;;;;;;;18.94;58.43;94642.69;5079256;28;20097;-78
2022/08/28 00:32:53;;;;;;;8.25;5.25;;;;;;;18.98;58.51;94652.69;5095765;28;20024;-78
2022/08/28 00:35:18;;;;;;;11.85;5.28;;;;;;;18.93;58.48;94641.88;5062532;28;20036;-78
2022/08/28 00:37:45;;;;;;;10.02;5.28;;;;;;;18.88;58.43;94638.16;5078881;28;20451;-77
2022/08/28 00:40:11;;;;;;;13.10;5.60;;;;;;;18.99;58.09;94650.88;5095895;28;20024;-78
2022/08/28 00:42:37;;;;;;;10.77;5.50;;;;;;;19.00;57.58;94655.16;5062257;28;20508;-78
2022/08/28 00:45:04;;;;;;;15.55;5.90;;;;;;;18.98;57.67;94660.59;5095531;28;20031;-78
2022/08/28 00:47:29;;;;;;;9.00;5.60;;;;;;;18.93;57.90;94662.13;5078710;28;20058;-78
2022/08/28 00:49:55;;;;;;;8.25;5.28;;;;;;;18.92;58.23;94656.06;5078157;28;20493;-78
2022/08/28 00:52:22;;;;;;;9.30;5.68;;;;;;;18.77;58.46;94649.16;5078442;28;20080;-78
2022/08/28 00:54:54;;;;;;;10.20;5.95;;;;;;;18.84;58.72;94650.06;5078847;28;20064;-78
2022/08/28 00:57:22;;;;;;;16.45;5.72;;;;;;;18.83;58.80;94651.84;5078677;28;20046;-78
2022/08/28 00:59:47;;;;;;;10.25;5.70;;;;;;;18.85;59.02;94654.31;5061616;28;20036;-77
2022/08/28 01:02:13;;;;;;;10.95;6.15;;;;;;;18.86;59.16;94655.94;5061951;28;20023;-78
2022/08/28 01:04:38;;;;;;;7.65;6.38;;;;;;;18.68;59.20;94638.69;5078242;28;20035;-78
2022/08/28 01:07:08;;;;;;;8.48;5.50;;;;;;;18.78;59.23;94654.25;5095045;28;20040;-78
2022/08/28 01:09:36;;;;;;;10.98;5.70;;;;;;;18.77;59.23;94641.25;5095518;28;20417;-78
2022/08/28 01:12:07;;;;;;;10.10;5.80;;;;;;;18.78;59.11;94654.25;5078258;28;20042;-78
2022/08/28 01:14:32;;;;;;;10.93;5.93;;;;;;;18.68;59.34;94643.13;5095540;28;20027;-78
2022/08/28 01:16:58;;;;;;;8.05;5.03;;;;;;;18.73;59.40;94654.75;5077916;28;20391;-78
2022/08/28 01:19:36;;;;;;;10.40;5.32;;;;;;;18.68;59.31;94666.81;5078075;28;20111;-78
2022/08/28 01:22:21;;;;;;;11.98;5.53;;;;;;;18.51;59.76;94668.78;5078349;28;20034;-78
2022/08/28 01:24:46;;;;;;;10.25;5.75;;;;;;;18.45;59.52;94659.78;5094698;28;20036;-78
2022/08/28 01:27:12;;;;;;;8.13;5.85;;;;;;;18.45;59.73;94666.88;5077967;28;20023;-77
2022/08/28 01:29:38;;;;;;;9.98;5.93;;;;;;;18.44;60.06;94673.94;5094936;28;20497;-78
2022/08/28 01:32:04;;;;;;;10.13;5.45;;;;;;;18.37;59.69;94651.16;5094655;28;20077;-78
2022/08/28 01:34:30;;;;;;;9.93;6.03;;;;;;;18.37;59.77;94659.06;5077966;28;20036;-78
2022/08/28 01:36:56;;;;;;;10.52;5.70;;;;;;;18.41;59.61;94662.94;5077573;28;20425;-78
2022/08/28 01:39:22;;;;;;;13.30;6.03;;;;;;;18.46;60.07;94666.69;5061044;28;20032;-78
2022/08/28 01:41:50;;;;;;;12.18;5.68;;;;;;;18.31;60.18;94650.88;5077618;28;20032;-78
2022/08/28 01:44:16;;;;;;;12.15;5.65;;;;;;;18.29;60.58;94647.59;5078001;28;20377;-78
2022/08/28 01:46:42;;;;;;;9.15;5.68;;;;;;;18.27;60.72;94646.16;5077569;28;20108;-78
2022/08/28 01:49:10;;;;;;;14.05;6.10;;;;;;;18.29;60.90;94659.94;5094202;28;20089;-78
2022/08/28 01:51:37;;;;;;;7.25;5.60;;;;;;;18.35;60.56;94666.31;5094297;28;20101;-78
2022/08/28 01:54:02;;;;;;;10.50;5.65;;;;;;;18.36;60.66;94665.28;5094230;28;20031;-78
2022/08/28 01:56:28;;;;;;;7.70;5.55;;;;;;;17.99;60.60;94614.38;5094088;28;20028;-78
2022/08/28 01:58:54;;;;;;;12.00;6.15;;;;;;;18.20;60.76;94661.81;5060614;28;20027;-77
2022/08/28 02:01:19;;;;;;;10.57;5.75;;;;;;;18.16;61.11;94671.03;5076227;28;20044;-78
2022/08/28 02:03:45;;;;;;;12.57;6.20;;;;;;;18.12;61.40;94671.59;5076982;28;20039;-78
2022/08/28 02:06:13;;;;;;;8.50;5.47;;;;;;;17.98;61.48;94670.56;5076860;28;20023;-78
2022/08/28 02:08:39;;;;;;;9.77;5.50;;;;;;;18.04;61.34;94673.28;5077165;28;20020;-78
2022/08/28 02:11:07;;;;;;;10.45;5.40;;;;;;;18.02;61.15;94662.13;5060256;28;20028;-78
2022/08/28 02:13:34;;;;;;;10.43;5.45;;;;;;;18.12;60.36;94674.22;5077613;28;20023;-78
2022/08/28 02:15:59;;;;;;;13.07;6.03;;;;;;;18.03;60.36;94661.16;5076891;28;20035;-78
2022/08/28 02:18:25;;;;;;;8.68;5.30;;;;;;;18.02;60.24;94650.78;5093518;28;20027;-77
2022/08/28 02:20:50;;;;;;;10.48;5.72;;;;;;;18.11;60.31;94655.00;5076799;28;20031;-78
2022/08/28 02:23:16;;;;;;;9.05;5.18;;;;;;;17.98;60.50;94649.53;5093689;28;20032;-78
2022/08/28 02:25:41;;;;;;;10.32;5.72;;;;;;;18.17;60.26;94674.53;5076857;28;20485;-78
2022/08/28 02:28:07;;;;;;;9.20;5.40;;;;;;;18.10;59.92;94653.38;5076652;28;20027;-78
2022/08/28 02:30:33;;;;;;;10.77;5.63;;;;;;;18.26;59.72;94671.63;5093756;28;20119;-78
2022/08/28 02:32:58;;;;;;;7.20;5.18;;;;;;;18.25;59.58;94661.31;5076761;28;20031;-78
2022/08/28 02:35:24;;;;;;;10.77;5.60;;;;;;;18.31;59.50;94671.91;5060004;28;20405;-78
2022/08/28 02:37:50;;;;;;;7.75;5.25;;;;;;;18.31;59.59;94677.19;5076454;28;20421;-78
2022/08/28 02:40:17;;;;;;;9.77;5.88;;;;;;;18.34;59.74;94683.91;5059921;28;20035;-78
2022/08/28 02:42:42;;;;;;;8.93;5.57;;;;;;;18.21;59.94;94660.81;5076726;28;20028;-78
2022/08/28 02:45:10;;;;;;;10.32;5.70;;;;;;;18.21;59.99;94665.28;5076707;28;20030;-78
2022/08/28 02:47:39;;;;;;;7.20;5.70;;;;;;;17.95;60.02;94616.53;5076724;28;20126;-77
2022/08/28 02:50:06;;;;;;;12.93;5.88;;;;;;;18.16;60.12;94675.50;5076667;28;20084;-77
2022/08/28 02:52:33;;;;;;;9.00;5.50;;;;;;;18.15;59.65;94658.91;5076234;28;20058;-78
2022/08/28 02:54:58;;;;;;;9.07;5.68;;;;;;;18.23;59.03;94656.22;5076524;28;20032;-78
2022/08/28 02:57:25;;;;;;;11.57;5.45;;;;;;;18.17;59.54;94662.19;5093164;28;20577;-78
2022/08/28 02:59:50;;;;;;;7.65;5.32;;;;;;;18.33;59.41;94677.00;5076410;28;20035;-77
2022/08/28 03:02:16;;;;;;;9.80;5.35;;;;;;;18.27;59.67;94669.81;5093446;28;20038;-77
2022/08/28 03:04:41;;;;;;;15.02;5.70;;;;;;;18.33;59.60;94674.38;5093307;28;20031;-77
2022/08/28 03:07:08;;;;;;;8.73;5.82;;;;;;;18.27;59.67;94673.25;5076384;28;20433;-77
2022/08/28 03:09:34;;;;;;;10.35;5.85;;;;;;;18.29;59.75;94681.78;5093385;28;20497;-77
2022/08/28 03:11:59;;;;;;;10.45;6.35;;;;;;;18.09;60.10;94664.88;5093109;28;20020;-77
2022/08/28 03:14:25;;;;;;;13.00;6.00;;;;;;;18.02;60.27;94682.34;5096718;28;20288;-78
2022/08/28 03:16:50;;;;;;;11.52;5.78;;;;;;;18.06;60.33;94681.81;5080138;28;20032;-78
2022/08/28 03:19:16;;;;;;;9.98;5.60;;;;;;;18.13;60.25;94689.81;5080132;28;20405;-77
2022/08/28 03:21:41;;;;;;;7.90;5.70;;;;;;;18.14;60.00;94682.75;5080366;28;20039;-78
2022/08/28 03:24:07;;;;;;;13.00;5.85;;;;;;;18.17;60.21;94687.66;5063348;28;20035;-77
2022/08/28 03:26:32;;;;;;;7.53;5.47;;;;;;;18.18;60.21;94682.22;5080088;28;20042;-78
2022/08/28 03:28:58;;;;;;;10.23;6.05;;;;;;;18.05;60.71;94681.97;5096861;28;20110;-77
2022/08/28 03:31:24;;;;;;;11.07;6.05;;;;;;;18.05;60.77;94687.22;5080133;28;20031;-78
2022/08/28 03:33:50;;;;;;;12.48;5.88;;;;;;;18.02;60.80;94690.22;5079727;28;20444;-77
2022/08/28 03:36:20;;;;;;;10.15;5.55;;;;;;;17.84;60.94;94669.50;5079804;28;20039;-78
2022/08/28 03:38:45;;;;;;;9.77;5.47;;;;;;;17.98;60.92;94694.22;5080395;28;20470;-77
2022/08/28 03:41:12;;;;;;;7.22;5.40;;;;;;;17.89;60.90;94687.38;5079919;28;20036;-77
2022/08/28 03:43:37;;;;;;;11.38;5.90;;;;;;;17.92;60.92;94711.50;5096913;28;20028;-77
2022/08/28 03:46:03;;;;;;;9.02;5.90;;;;;;;17.82;61.10;94695.94;5079719;28;20031;-77
2022/08/28 03:48:31;;;;;;;10.18;5.80;;;;;;;17.80;61.32;94707.59;5079826;28;20028;-77
2022/08/28 03:50:57;;;;;;;9.82;6.25;;;;;;;17.83;61.30;94707.28;5062980;28;20032;-77
2022/08/28 03:53:25;;;;;;;8.32;5.55;;;;;;;17.65;61.48;94689.13;5063240;28;20201;-78
2022/08/28 03:55:51;;;;;;;8.38;5.65;;;;;;;17.69;61.35;94694.84;5096483;28;20509;-77
2022/08/28 03:58:17;;;;;;;10.18;5.85;;;;;;;17.74;61.75;94719.59;5079584;28;20023;-77
2022/08/28 04:00:43;;;;;;;9.82;5.80;;;;;;;17.75;61.69;94715.19;5092778;28;20056;-77
2022/08/28 04:03:11;;;;;;;9.05;6.13;;;;;;;17.69;61.74;94721.94;5075933;28;20444;-77
2022/08/28 04:05:40;;;;;;;9.93;6.80;;;;;;;17.57;61.92;94708.38;5094657;28;20040;-78
2022/08/28 04:08:06;;;;;;;10.65;5.43;;;;;;;17.63;61.79;94698.97;5076330;28;20027;-77
2022/08/28 04:10:31;;;;;;;10.40;6.03;;;;;;;17.70;61.73;94718.31;5059366;28;20025;-78
2022/08/28 04:12:57;;;;;;;10.20;5.93;;;;;;;17.70;61.65;94712.25;5092775;28;20574;-78
2022/08/28 04:15:23;;;;;;;6.88;5.18;;;;;;;17.76;61.66;94728.13;5075914;28;20062;-78
2022/08/28 04:17:49;;;;;;;9.82;5.55;;;;;;;17.42;61.62;94668.09;5075669;28;20035;-78
2022/08/28 04:20:14;;;;;;;8.32;5.60;;;;;;;17.64;61.55;94711.13;5092792;28;20032;-78
2022/08/28 04:22:39;;;;;;;11.00;5.68;;;;;;;17.80;61.02;94732.09;5075753;28;20032;-78
2022/08/28 04:25:05;;;;;;;9.23;5.80;;;;;;;17.75;61.25;94741.47;5058129;28;20040;-78
2022/08/28 04:27:31;;;;;;;10.02;5.38;;;;;;;17.73;61.67;94744.25;5092731;28;20024;-78
2022/08/28 04:29:56;;;;;;;9.65;5.70;;;;;;;17.69;61.81;94748.22;5075605;28;20032;-78
2022/08/28 04:32:22;;;;;;;11.23;5.70;;;;;;;17.71;61.07;94738.34;5075436;28;20414;-77
2022/08/28 04:34:48;;;;;;;11.77;5.70;;;;;;;17.79;60.99;94743.56;5075422;28;20032;-78
2022/08/28 04:37:14;;;;;;;8.40;5.60;;;;;;;17.79;60.71;94742.75;5092157;28;20078;-78
2022/08/28 04:39:40;;;;;;;10.60;5.75;;;;;;;17.74;60.73;94730.09;5075454;28;20062;-78
2022/08/28 04:42:05;;;;;;;7.68;6.10;;;;;;;17.94;60.82;94756.81;5075524;28;20516;-78
2022/08/28 04:44:31;;;;;;;8.85;5.70;;;;;;;17.99;60.57;94727.38;5092249;28;20040;-77
2022/08/28 04:46:56;;;;;;;8.85;6.07;;;;;;;18.63;59.14;94762.03;5075205;28;20107;-78
2022/08/28 04:49:22;;;;;;;6.20;5.43;;;;;;;19.02;58.49;94740.00;5075140;28;20036;-78
2022/08/28 04:51:47;;;;;;;9.73;5.80;;;;;;;19.68;56.33;94753.25;5075211;28;20403;-78
2022/08/28 04:54:13;;;;;;;7.40;5.85;;;;;;;20.13;54.45;94708.31;5058507;28;20097;-78
2022/08/28 04:56:38;;;;;;;12.32;5.60;;;;;;;21.11;52.30;94754.19;5091882;28;20077;-78
2022/08/28 04:59:04;;;;;;;13.23;5.18;;;;;;;21.62;50.21;94741.50;5075012;28;20410;-78
2022/08/28 05:01:30;;;;;;;10.02;5.35;;;;;;;22.34;48.72;94757.00;5075003;28;20048;-78
2022/08/28 05:03:57;;;;;;;8.68;5.18;;;;;;;22.90;47.05;94753.97;5075049;28;20043;-78
2022/08/28 05:06:25;;;;;;;7.90;5.20;;;;;;;23.33;45.93;94745.59;5075082;28;20028;-78
2022/08/28 05:08:51;;;;;;;10.65;5.30;;;;;;;23.69;45.00;94747.75;5092792;28;20104;-78
2022/08/28 05:11:20;;;;;;;7.82;4.85;;;;;;;24.21;43.73;94750.38;5091515;28;20034;-78
2022/08/28 05:13:46;;;;;;;12.88;5.70;;;;;;;24.28;43.46;94749.31;5092889;28;20387;-79
2022/08/28 05:16:11;;;;;;;8.85;5.20;;;;;;;24.68;42.29;94742.94;5073931;28;20024;-78
2022/08/28 05:18:37;;;;;;;9.60;4.90;;;;;;;24.87;41.90;94749.94;5093091;28;20025;-77
2022/08/28 05:21:02;;;;;;;11.98;4.90;;;;;;;24.58;42.59;94747.94;5092683;28;20122;-78
2022/08/28 05:23:28;;;;;;;10.38;5.22;;;;;;;24.09;43.73;94752.91;5092699;28;20119;-77
2022/08/28 05:25:54;;;;;;;7.95;5.38;;;;;;;23.93;44.71;94756.88;5092488;28;20032;-77
2022/08/28 05:28:19;;;;;;;9.73;5.32;;;;;;;24.02;44.16;94755.59;5057986;28;20035;-78
2022/08/28 05:30:45;;;;;;;16.02;5.28;;;;;;;23.92;44.17;94749.91;5091410;28;20123;-77
2022/08/28 05:33:12;;;;;;;9.20;5.15;;;;;;;23.93;45.43;94761.34;5057445;28;20456;-77
2022/08/28 05:35:40;;;;;;;9.55;4.90;;;;;;;23.88;44.88;94764.63;5074309;28;20111;-78
2022/08/28 05:38:05;;;;;;;12.25;5.47;;;;;;;23.43;45.94;94772.50;5090092;28;20391;-77
2022/08/28 05:40:31;;;;;;;18.17;6.40;;;;;;;23.08;46.53;94767.44;5074384;28;20027;-78
2022/08/28 05:42:56;;;;;;;14.95;5.95;;;;;;;22.63;47.99;94782.31;5074166;28;20114;-78
2022/08/28 05:45:22;;;;;;;16.58;6.00;;;;;;;22.93;48.31;94782.72;5074246;28;20031;-78
2022/08/28 05:47:48;;;;;;;12.95;5.10;;;;;;;22.82;47.82;94775.41;5092085;28;20024;-77
2022/08/28 05:50:13;;;;;;;14.50;5.57;;;;;;;22.95;48.69;94780.66;5091082;28;20409;-77
2022/08/28 05:52:42;;;;;;;13.95;5.32;;;;;;;23.14;48.62;94787.00;5057393;28;20455;-78
2022/08/28 05:55:09;;;;;;;11.30;6.10;;;;;;;23.37;47.75;94775.97;5073932;28;20039;-78
2022/08/28 05:57:35;;;;;;;17.80;6.07;;;;;;;23.36;47.61;94782.28;5074060;28;20036;-78
2022/08/28 06:00:01;;;;;;;10.57;5.80;;;;;;;23.44;47.55;94776.78;5094675;28;20425;-78
2022/08/28 06:02:26;;;;;;;9.80;5.28;;;;;;;23.49;47.70;94776.97;5094211;28;20404;-78
2022/08/28 06:04:53;;;;;;;11.88;6.00;;;;;;;23.68;47.17;94777.09;5077256;28;20028;-78
2022/08/28 06:07:18;;;;;;;11.98;5.60;;;;;;;23.60;47.37;94781.63;5077052;28;20500;-78
2022/08/28 06:09:44;;;;;;;7.50;5.20;;;;;;;23.60;47.56;94778.16;5076852;28;20032;-78
2022/08/28 06:12:10;;;;;;;8.20;5.22;;;;;;;23.67;47.19;94780.78;5112210;28;20055;-78
2022/08/28 06:14:35;;;;;;;12.55;5.75;;;;;;;23.80;46.89;94772.81;5077133;28;20260;-78
2022/08/28 06:17:01;;;;;;;9.98;5.40;;;;;;;23.80;47.15;94767.53;5076850;28;20024;-78
2022/08/28 06:19:27;;;;;;;12.20;5.55;;;;;;;23.81;47.05;94767.28;5060275;28;20492;-78
2022/08/28 06:21:54;;;;;;;12.35;5.97;;;;;;;23.89;47.21;94778.72;5093865;28;20101;-78
2022/08/28 06:24:19;;;;;;;12.10;5.20;;;;;;;23.94;47.42;94776.25;5077137;28;20043;-78
2022/08/28 06:26:45;;;;;;;11.63;5.70;;;;;;;24.00;46.63;94776.19;5076722;28;20512;-78
2022/08/28 06:29:12;;;;;;;8.65;6.03;;;;;;;24.01;46.84;94769.84;5093529;28;20437;-78
2022/08/28 06:31:38;;;;;;;12.38;6.75;;;;;;;24.01;46.87;94775.16;5060196;28;20525;-78
2022/08/28 06:34:04;;;;;;;12.35;6.95;;;;;;;24.20;47.01;94777.94;5093815;28;20036;-78
2022/08/28 06:36:30;;;;;;;14.45;6.28;;;;;;;24.30;46.45;94775.66;5076906;28;20055;-78
2022/08/28 06:38:57;;;;;;;9.88;6.40;;;;;;;24.26;46.56;94775.25;5059890;28;20031;-78
2022/08/28 06:41:23;;;;;;;11.65;6.43;;;;;;;24.27;46.22;94771.59;5076601;28;20035;-78
2022/08/28 06:43:48;;;;;;;11.82;5.03;;;;;;;24.21;46.56;94779.56;5076610;28;20454;-77
2022/08/28 06:46:14;;;;;;;13.90;6.00;;;;;;;24.17;46.69;94759.81;5059942;28;20031;-78
2022/08/28 06:48:40;;;;;;;13.13;5.53;;;;;;;24.30;46.73;94778.31;5093148;28;20019;-78
2022/08/28 06:51:06;;;;;;;10.82;5.25;;;;;;;24.38;46.30;94767.44;5059798;28;20032;-78
2022/08/28 06:53:32;;;;;;;9.60;5.80;;;;;;;24.45;46.01;94773.53;5076735;28;20020;-77
2022/08/28 06:56:05;;;;;;;7.95;5.05;;;;;;;24.60;45.82;94781.22;5076444;28;20043;-77
2022/08/28 06:58:31;;;;;;;11.05;5.30;;;;;;;24.64;45.94;94778.94;5076791;28;20413;-78
2022/08/28 07:01:03;;;;;;;11.30;5.55;;;;;;;24.79;45.74;94784.75;5111294;28;20047;-78
2022/08/28 07:03:29;;;;;;;13.50;5.60;;;;;;;24.93;45.01;94778.31;5093038;28;20501;-77
2022/08/28 07:05:58;;;;;;;9.20;5.63;;;;;;;24.97;45.43;94774.19;5111584;28;20028;-77
2022/08/28 07:08:27;;;;;;;12.10;5.50;;;;;;;25.14;44.72;94784.28;5076429;28;20028;-77
2022/08/28 07:10:52;;;;;;;12.93;5.75;;;;;;;25.18;45.09;94780.16;5093375;28;20508;-77
2022/08/28 07:13:19;;;;;;;14.55;5.65;;;;;;;25.25;44.41;94778.28;5076263;28;20019;-77
2022/08/28 07:15:45;;;;;;;11.60;5.82;;;;;;;25.27;44.41;94768.25;5076660;28;20118;-77
2022/08/28 07:18:11;;;;;;;13.32;5.80;;;;;;;25.20;44.24;94778.09;5076225;28;20034;-77
2022/08/28 07:20:36;;;;;;;9.88;4.82;;;;;;;25.39;44.22;94778.97;5076214;28;20417;-77
2022/08/28 07:23:02;;;;;;;10.57;5.85;;;;;;;25.46;43.41;94765.59;5093179;28;20024;-77
2022/08/28 07:25:28;;;;;;;11.20;5.10;;;;;;;25.50;43.50;94756.97;5076578;28;20032;-77
2022/08/28 07:27:54;;;;;;;13.60;5.93;;;;;;;25.76;43.07;94777.13;5093100;28;20024;-78
2022/08/28 07:30:19;;;;;;;10.85;5.53;;;;;;;25.83;42.38;94775.25;5093332;28;20031;-77
2022/08/28 07:32:48;;;;;;;14.32;5.45;;;;;;;25.96;42.50;94776.09;5092946;28;20413;-77
2022/08/28 07:35:17;;;;;;;13.80;5.57;;;;;;;26.09;41.88;94770.63;5076968;28;20047;-77
2022/08/28 07:37:43;;;;;;;11.23;5.03;;;;;;;26.22;41.25;94775.78;5076697;28;20031;-77
2022/08/28 07:40:10;;;;;;;15.90;7.60;;;;;;;26.33;41.21;94773.38;5076268;28;20133;-78
2022/08/28 07:45:20;;;;;;;12.43;5.18;;;;;;;26.38;41.60;94749.56;5081611;28;20115;-78
2022/08/28 07:47:45;;;;;;;14.07;5.43;;;;;;;26.54;39.77;94762.25;5075993;28;20412;-78
2022/08/28 07:50:11;;;;;;;10.70;5.80;;;;;;;26.59;39.68;94759.72;5092982;28;20092;-77
2022/08/28 07:52:37;;;;;;;11.18;5.32;;;;;;;26.57;39.42;94751.16;5059428;28;20039;-78
2022/08/28 07:55:04;;;;;;;10.43;5.10;;;;;;;26.54;39.15;94746.28;5092988;28;20055;-78
2022/08/28 07:57:30;;;;;;;15.25;5.57;;;;;;;26.68;39.70;94753.03;5093451;28;20057;-77
2022/08/28 07:59:57;;;;;;;9.98;5.60;;;;;;;26.64;39.95;94738.56;5093605;28;20036;-77
2022/08/28 08:02:22;;;;;;;12.98;5.38;;;;;;;26.93;38.45;94758.16;5062959;28;20028;-79
2022/08/28 08:04:48;;;;;;;12.95;5.63;;;;;;;27.02;38.87;94753.28;5096216;28;20524;-78
2022/08/28 08:07:16;;;;;;;10.30;5.80;;;;;;;27.14;37.52;94751.47;5079382;28;20038;-79
2022/08/28 08:09:42;;;;;;;13.90;5.25;;;;;;;27.21;37.27;94761.22;5080015;28;20516;-79
2022/08/28 08:12:08;;;;;;;11.80;5.22;;;;;;;27.26;36.79;94742.69;5114350;28;20027;-79
2022/08/28 08:14:35;;;;;;;10.43;5.30;;;;;;;27.32;35.93;94752.41;5079609;28;20481;-79
2022/08/28 08:17:01;;;;;;;14.27;5.78;;;;;;;27.11;36.87;94709.28;5079456;28;20031;-79
2022/08/28 08:19:27;;;;;;;9.82;5.30;;;;;;;27.29;37.20;94734.22;5079258;28;20040;-79
2022/08/28 08:21:53;;;;;;;11.60;5.18;;;;;;;27.44;37.44;94747.88;5079404;28;20042;-78
2022/08/28 08:24:19;;;;;;;10.80;5.53;;;;;;;27.56;37.46;94748.69;5079305;28;20028;-78
2022/08/28 08:26:49;;;;;;;11.07;5.45;;;;;;;27.64;37.81;94742.19;5096095;28;20024;-79
2022/08/28 08:29:14;;;;;;;14.15;6.00;;;;;;;27.71;36.78;94752.72;5079753;28;20064;-79
2022/08/28 08:31:40;;;;;;;8.13;5.20;;;;;;;27.67;36.92;94746.25;5079443;28;20500;-79
2022/08/28 08:34:05;;;;;;;9.30;4.97;;;;;;;27.77;37.24;94754.44;5095928;28;20024;-79
2022/08/28 08:36:32;;;;;;;11.57;5.40;;;;;;;27.88;37.44;94740.28;5095908;28;20485;-79
2022/08/28 08:39:01;;;;;;;9.05;4.90;;;;;;;27.99;35.44;94744.78;5078864;28;20044;-79
2022/08/28 08:41:31;;;;;;;7.10;4.93;;;;;;;27.97;36.21;94732.72;5096276;28;20031;-79
2022/08/28 08:43:59;;;;;;;;;;;;;;;28.11;35.76;94744.75;5079131;28;20108;-79
2022/08/28 08:46:50;;;;;;;16.17;5.00;;;;;;;28.13;35.75;94739.97;5095678;28;19912;-79
2022/08/28 08:49:17;;;;;;;10.40;5.03;;;;;;;28.23;35.62;94742.03;5088424;28;20475;-79
2022/08/28 08:51:46;;;;;;;13.07;5.18;;;;;;;28.32;34.89;94734.47;5078812;28;20062;-79
2022/08/28 08:54:17;;;;;;;9.50;5.00;;;;;;;28.45;35.38;94740.34;5078568;28;20074;-79
2022/08/28 08:56:43;;;;;;;9.73;5.20;;;;;;;28.47;34.04;94735.56;5079415;28;20028;-79
2022/08/28 08:59:13;;;;;;;11.45;5.43;;;;;;;28.48;34.05;94745.19;5078633;28;20044;-79
2022/08/28 09:01:43;;;;;;;12.48;5.28;;;;;;;28.56;34.09;94745.88;5079165;28;20052;-79
2022/08/28 09:04:38;;;;;;;9.30;5.03;;;;;;;28.66;34.49;94738.81;5078809;28;20040;-78
2022/08/28 09:07:12;;;;;;;10.93;5.40;;;;;;;28.74;33.81;94745.63;5095628;28;20416;-77
2022/08/28 09:09:46;;;;;;;13.70;4.95;;;;;;;28.83;32.87;94744.16;5062429;28;20517;-78
2022/08/28 09:12:21;;;;;;;10.43;5.32;;;;;;;28.93;33.16;94735.53;5095151;28;20075;-78
2022/08/28 09:15:03;;;;;;;11.70;5.38;;;;;;;29.00;34.22;94730.00;5079503;28;20034;-78
2022/08/28 09:17:32;;;;;;;11.73;5.57;;;;;;;29.10;33.51;94739.03;5095953;28;20031;-77
2022/08/28 09:19:57;;;;;;;12.77;5.32;;;;;;;29.18;33.92;94732.47;5095199;28;20174;-78
2022/08/28 09:22:22;;;;;;;12.93;5.20;;;;;;;29.26;33.87;94734.72;5095364;28;20507;-78
2022/08/28 09:24:48;;;;;;;15.23;5.65;;;;;;;29.38;34.02;94732.75;5113410;28;20474;-78
2022/08/28 09:27:22;;;;;;;8.77;4.93;;;;;;;29.41;33.30;94720.75;5113565;28;20543;-78
2022/08/28 09:29:56;;;;;;;14.10;5.53;;;;;;;29.46;32.98;94728.03;5078320;28;20036;-78
2022/08/28 09:32:37;;;;;;;8.93;5.28;;;;;;;29.47;33.54;94718.94;5095472;28;20031;-78
2022/08/28 09:35:12;;;;;;;8.88;5.18;;;;;;;29.54;32.12;94725.75;5061943;28;20063;-78
2022/08/28 09:37:37;;;;;;;12.68;5.13;;;;;;;29.60;32.89;94721.25;5112996;28;20034;-78
2022/08/28 09:40:14;;;;;;;10.63;5.20;;;;;;;29.57;33.19;94713.75;5094843;28;20451;-78
2022/08/28 09:45:24;;;;;;;15.40;5.68;;;;;;;29.78;31.88;94717.50;5083109;28;20058;-79
2022/08/28 09:47:56;;;;;;;12.32;5.47;;;;;;;29.77;32.51;94708.66;5094637;28;20477;-78
2022/08/28 09:50:39;;;;;;;16.90;5.32;;;;;;;29.83;32.37;94696.94;5060898;28;20030;-78
2022/08/28 09:53:07;;;;;;;12.20;5.00;;;;;;;29.95;31.96;94709.38;5061065;28;20047;-79
2022/08/28 09:55:44;;;;;;;11.85;5.28;;;;;;;29.83;31.60;94688.13;5113077;28;20032;-79
2022/08/28 09:58:10;;;;;;;14.10;5.10;;;;;;;30.04;31.81;94707.91;5112532;28;20485;-79
2022/08/28 10:00:36;;;;;;;14.63;5.72;;;;;;;30.08;29.46;94702.84;5094436;28;20066;-79
2022/08/28 10:03:18;;;;;;;12.30;5.25;;;;;;;30.01;31.26;94695.03;5060605;28;20030;-79
2022/08/28 10:06:03;;;;;;;11.63;4.63;;;;;;;30.08;29.76;94687.59;5094373;28;20043;-79
2022/08/28 10:09:01;;;;;;;12.32;5.35;;;;;;;30.20;31.00;94703.50;5061620;28;20062;-78
2022/08/28 10:11:35;;;;;;;10.60;5.40;;;;;;;30.25;29.57;94704.41;5079826;28;20358;-79
2022/08/28 10:14:23;;;;;;;11.43;5.05;;;;;;;30.24;29.90;94701.97;5094147;28;20096;-79
2022/08/28 10:17:24;;;;;;;12.65;5.35;;;;;;;30.18;29.63;94676.19;5094216;28;20034;-78
2022/08/28 10:20:08;;;;;;;13.18;5.40;;;;;;;30.45;28.66;94693.09;5056387;28;20137;-78
2022/08/28 10:22:51;;;;;;;16.15;5.72;;;;;;;30.49;28.75;94683.47;5093133;28;20024;-79
2022/08/28 10:25:29;;;;;;;13.07;5.10;;;;;;;30.42;29.40;94687.41;5094077;28;20051;-78
2022/08/28 10:28:30;;;;;;;16.80;6.07;;;;;;;30.42;28.85;94690.09;5095132;28;20038;-79
2022/08/28 10:31:19;;;;;;;12.50;5.38;;;;;;;30.44;28.93;94685.28;5096683;28;20059;-79
2022/08/28 10:34:07;;;;;;;13.13;5.78;;;;;;;30.49;29.61;94682.66;5095266;28;20035;-79
2022/08/28 10:36:33;;;;;;;12.27;5.65;;;;;;;30.56;29.14;94685.94;5096269;28;20023;-79
2022/08/28 10:39:16;;;;;;;11.18;5.30;;;;;;;30.63;29.93;94683.84;5093425;28;20059;-78
2022/08/28 10:41:50;;;;;;;12.25;5.57;;;;;;;30.71;27.75;94688.75;5111708;28;20578;-79
2022/08/28 10:44:42;;;;;;;9.25;5.25;;;;;;;30.73;27.15;94678.59;5093509;28;20052;-79
2022/08/28 10:47:08;;;;;;;12.88;5.25;;;;;;;30.77;26.56;94683.44;5096895;28;20468;-78
2022/08/28 10:49:38;;;;;;;10.23;4.93;;;;;;;30.73;26.62;94673.22;5076501;28;20055;-79
2022/08/28 10:52:10;;;;;;;14.23;5.47;;;;;;;30.54;27.47;94637.16;5076868;28;20485;-78
2022/08/28 10:55:11;;;;;;;10.35;5.05;;;;;;;30.87;27.99;94676.31;5060356;28;20028;-79
2022/08/28 10:57:43;;;;;;;10.80;4.80;;;;;;;30.94;25.85;94673.41;5093270;28;20088;-79
2022/08/28 11:00:29;;;;;;;14.57;4.78;;;;;;;31.04;24.59;94670.78;5093142;28;20055;-78
2022/08/28 11:02:56;;;;;;;13.73;4.95;;;;;;;30.99;25.94;94665.38;5092796;28;20539;-79
2022/08/28 11:05:22;;;;;;;11.93;4.93;;;;;;;30.97;25.46;94650.63;5111670;28;20034;-79
2022/08/28 11:07:50;;;;;;;11.95;5.53;;;;;;;30.99;26.40;94654.66;5076498;28;20455;-79
2022/08/28 11:10:31;;;;;;;9.57;5.43;;;;;;;31.12;27.35;94666.78;5059521;28;20147;-79
2022/08/28 11:12:56;;;;;;;10.88;5.40;;;;;;;31.09;26.26;94661.94;5093118;28;20506;-79
2022/08/28 11:15:28;;;;;;;8.10;5.00;;;;;;;31.10;25.39;94655.53;5093340;28;20035;-78
2022/08/28 11:18:14;;;;;;;12.23;5.68;;;;;;;31.15;25.73;94652.88;5111284;28;20035;-79
2022/08/28 11:20:41;;;;;;;12.48;5.93;;;;;;;31.22;26.98;94648.09;5095658;28;20036;-79
2022/08/28 11:23:19;;;;;;;12.88;5.70;;;;;;;31.26;26.00;94664.47;5093308;28;20063;-79
2022/08/28 11:25:57;;;;;;;11.80;5.30;;;;;;;31.32;25.94;94655.41;5059786;28;20032;-79
2022/08/28 11:28:22;;;;;;;8.38;5.13;;;;;;;31.41;26.03;94643.13;5111205;28;20028;-79
2022/08/28 11:31:09;;;;;;;12.13;5.60;;;;;;;31.39;25.84;94647.94;5111703;28;20042;-79
2022/08/28 11:33:37;;;;;;;10.15;5.70;;;;;;;31.38;27.27;94649.00;5100255;28;20112;-78
2022/08/28 11:36:08;;;;;;;12.45;5.90;;;;;;;31.29;26.87;94643.31;5096974;28;20028;-79
2022/08/28 11:38:39;;;;;;;13.48;6.32;;;;;;;31.44;27.36;94649.84;5080677;28;20024;-78
2022/08/28 11:41:13;;;;;;;12.15;7.28;;;;;;;31.48;27.76;94643.69;5096955;28;20054;-79